sensor_id;sensor_type;location;lat;lon;timestamp;pressure;altitude;pressure_sealevel;temperature;humidity
29239;BME280;16267;48.194;11.546;2023-06-22T00:00:58;96046.03;;;24.21;60.31
29239;BME280;16267;48.194;11.546;2023-06-22T00:03:25;96043.03;;;24.19;60.32
29239;BME280;16267;48.194;11.546;2023-06-22T00:05:51;96047.50;;;24.16;60.45
29239;BME280;16267;48.194;11.546;2023-06-22T00:08:18;96054.47;;;24.12;60.83
29239;BME280;16267;48.194;11.546;2023-06-22T00:10:45;96035.47;;;24.08;60.91
29239;BME280;16267;48.194;11.546;2023-06-22T00:13:12;96032.22;;;24.04;60.65
29239;BME280;16267;48.194;11.546;2023-06-22T00:15:43;96026.22;;;24.00;60.98
29239;BME280;16267;48.194;11.546;2023-06-22T00:18:10;96025.22;;;23.97;61.11
29239;BME280;16267;48.194;11.546;2023-06-22T00:20:39;96028.16;;;23.94;61.27
29239;BME280;16267;48.194;11.546;2023-06-22T00:23:15;96019.69;;;23.92;61.02
29239;BME280;16267;48.194;11.546;2023-06-22T00:25:42;96035.88;;;23.90;61.25
29239;BME280;16267;48.194;11.546;2023-06-22T00:28:08;96033.34;;;23.86;61.62
29239;BME280;16267;48.194;11.546;2023-06-22T00:30:41;96019.38;;;23.84;61.30
29239;BME280;16267;48.194;11.546;2023-06-22T00:33:07;96021.84;;;23.82;61.51
29239;BME280;16267;48.194;11.546;2023-06-22T00:35:33;96031.78;;;23.79;61.53
29239;BME280;16267;48.194;11.546;2023-06-22T00:38:00;96031.53;;;23.77;61.49
29239;BME280;16267;48.194;11.546;2023-06-22T00:40:33;96032.50;;;23.74;61.63
29239;BME280;16267;48.194;11.546;2023-06-22T00:43:01;96041.22;;;23.73;61.64
29239;BME280;16267;48.194;11.546;2023-06-22T00:45:27;96030.44;;;23.69;62.02
29239;BME280;16267;48.194;11.546;2023-06-22T00:47:54;96029.44;;;23.67;62.02
29239;BME280;16267;48.194;11.546;2023-06-22T00:50:28;96032.19;;;23.67;61.73
29239;BME280;16267;48.194;11.546;2023-06-22T00:53:03;96034.94;;;23.67;61.55
29239;BME280;16267;48.194;11.546;2023-06-22T00:55:37;96025.69;;;23.64;61.79
29239;BME280;16267;48.194;11.546;2023-06-22T00:58:06;96020.69;;;23.63;61.63
29239;BME280;16267;48.194;11.546;2023-06-22T01:00:45;96027.66;;;23.64;61.19
29239;BME280;16267;48.194;11.546;2023-06-22T01:03:11;96025.13;;;23.60;61.42
29239;BME280;16267;48.194;11.546;2023-06-22T01:05:38;96025.88;;;23.60;61.21
29239;BME280;16267;48.194;11.546;2023-06-22T01:11:18;96012.41;;;23.57;61.11
29239;BME280;16267;48.194;11.546;2023-06-22T01:14:10;96001.41;;;23.51;61.21
29239;BME280;16267;48.194;11.546;2023-06-22T01:16:41;95996.69;;;23.52;61.46
29239;BME280;16267;48.194;11.546;2023-06-22T01:19:50;95994.16;;;23.48;61.46
29239;BME280;16267;48.194;11.546;2023-06-22T01:22:24;95984.19;;;23.45;61.67
29239;BME280;16267;48.194;11.546;2023-06-22T01:25:13;95988.66;;;23.43;61.73
29239;BME280;16267;48.194;11.546;2023-06-22T01:28:19;95993.84;;;23.41;61.59
29239;BME280;16267;48.194;11.546;2023-06-22T01:30:49;95987.34;;;23.38;61.66
29239;BME280;16267;48.194;11.546;2023-06-22T01:33:26;95983.34;;;23.33;61.77
29239;BME280;16267;48.194;11.546;2023-06-22T01:35:52;95983.81;;;23.32;61.86
29239;BME280;16267;48.194;11.546;2023-06-22T01:38:18;95982.31;;;23.31;61.80
29239;BME280;16267;48.194;11.546;2023-06-22T01:40:44;95974.59;;;23.29;61.95
29239;BME280;16267;48.194;11.546;2023-06-22T01:43:10;95981.03;;;23.26;61.98
29239;BME280;16267;48.194;11.546;2023-06-22T01:45:36;95979.03;;;23.27;62.11
29239;BME280;16267;48.194;11.546;2023-06-22T01:48:02;95987.75;;;23.25;62.05
29239;BME280;16267;48.194;11.546;2023-06-22T01:50:28;95988.97;;;23.24;62.05
29239;BME280;16267;48.194;11.546;2023-06-22T01:52:54;95984.75;;;23.23;61.88
29239;BME280;16267;48.194;11.546;2023-06-22T01:55:19;95987.94;;;23.22;61.86
29239;BME280;16267;48.194;11.546;2023-06-22T01:57:45;95981.47;;;23.19;61.79
29239;BME280;16267;48.194;11.546;2023-06-22T02:00:16;95988.19;;;23.18;61.90
29239;BME280;16267;48.194;11.546;2023-06-22T02:02:52;95981.69;;;23.15;61.91
29239;BME280;16267;48.194;11.546;2023-06-22T02:05:19;95991.13;;;23.14;61.68
29239;BME280;16267;48.194;11.546;2023-06-22T02:08:10;95991.34;;;23.11;61.83
29239;BME280;16267;48.194;11.546;2023-06-22T02:10:38;95983.63;;;23.09;62.20
29239;BME280;16267;48.194;11.546;2023-06-22T02:13:07;95987.31;;;23.06;62.00
29239;BME280;16267;48.194;11.546;2023-06-22T02:15:34;95989.31;;;23.06;62.56
29239;BME280;16267;48.194;11.546;2023-06-22T02:18:00;95997.25;;;23.04;62.45
29239;BME280;16267;48.194;11.546;2023-06-22T02:20:27;95994.50;;;23.04;62.21
29239;BME280;16267;48.194;11.546;2023-06-22T02:22:52;95994.97;;;23.02;62.26
29239;BME280;16267;48.194;11.546;2023-06-22T02:25:18;95991.50;;;23.02;62.21
29239;BME280;16267;48.194;11.546;2023-06-22T02:27:45;95998.22;;;23.01;62.69
29239;BME280;16267;48.194;11.546;2023-06-22T02:30:11;95998.22;;;23.01;62.36
29239;BME280;16267;48.194;11.546;2023-06-22T02:32:37;95988.97;;;22.98;62.78
29239;BME280;16267;48.194;11.546;2023-06-22T02:35:09;95996.91;;;22.96;62.59
29239;BME280;16267;48.194;11.546;2023-06-22T02:37:38;96005.56;;;22.94;62.60
29239;BME280;16267;48.194;11.546;2023-06-22T02:40:08;96009.56;;;22.93;62.44
29239;BME280;16267;48.194;11.546;2023-06-22T02:42:39;96017.47;;;22.91;62.61
29239;BME280;16267;48.194;11.546;2023-06-22T02:45:06;96014.50;;;22.89;62.67
29239;BME280;16267;48.194;11.546;2023-06-22T02:47:32;96019.19;;;22.89;62.63
29239;BME280;16267;48.194;11.546;2023-06-22T02:49:58;96014.69;;;22.86;62.82
29239;BME280;16267;48.194;11.546;2023-06-22T02:52:23;96015.66;;;22.83;62.98
29239;BME280;16267;48.194;11.546;2023-06-22T02:54:49;96019.34;;;22.80;63.18
29239;BME280;16267;48.194;11.546;2023-06-22T02:57:15;96002.66;;;22.78;63.23
29239;BME280;16267;48.194;11.546;2023-06-22T02:59:41;96011.06;;;22.74;63.16
29239;BME280;16267;48.194;11.546;2023-06-22T03:02:10;96003.09;;;22.70;63.35
29239;BME280;16267;48.194;11.546;2023-06-22T03:04:39;95999.31;;;22.68;63.60
29239;BME280;16267;48.194;11.546;2023-06-22T03:07:05;95996.03;;;22.64;64.27
29239;BME280;16267;48.194;11.546;2023-06-22T03:09:30;95994.25;;;22.61;64.32
29239;BME280;16267;48.194;11.546;2023-06-22T03:11:56;95997.19;;;22.57;64.51
29239;BME280;16267;48.194;11.546;2023-06-22T03:14:22;95995.16;;;22.52;64.91
29239;BME280;16267;48.194;11.546;2023-06-22T03:16:48;95986.66;;;22.50;64.92
29239;BME280;16267;48.194;11.546;2023-06-22T03:19:14;95989.16;;;22.48;64.69
29239;BME280;16267;48.194;11.546;2023-06-22T03:21:40;95986.88;;;22.46;65.26
29239;BME280;16267;48.194;11.546;2023-06-22T03:24:07;95990.84;;;22.45;65.12
29239;BME280;16267;48.194;11.546;2023-06-22T03:26:34;95987.38;;;22.45;65.16
29239;BME280;16267;48.194;11.546;2023-06-22T03:29:00;95992.56;;;22.43;65.02
29239;BME280;16267;48.194;11.546;2023-06-22T03:31:26;95993.03;;;22.41;64.94
29239;BME280;16267;48.194;11.546;2023-06-22T03:33:52;95996.25;;;22.40;65.11
29239;BME280;16267;48.194;11.546;2023-06-22T03:36:18;95996.72;;;22.38;65.51
29239;BME280;16267;48.194;11.546;2023-06-22T03:38:49;95990.97;;;22.36;65.67
29239;BME280;16267;48.194;11.546;2023-06-22T03:41:16;95996.94;;;22.35;65.49
29239;BME280;16267;48.194;11.546;2023-06-22T03:43:42;95992.72;;;22.34;65.30
29239;BME280;16267;48.194;11.546;2023-06-22T03:46:08;96006.09;;;22.32;66.08
29239;BME280;16267;48.194;11.546;2023-06-22T03:48:34;96002.59;;;22.31;65.98
29239;BME280;16267;48.194;11.546;2023-06-22T03:51:01;96003.06;;;22.30;65.75
29239;BME280;16267;48.194;11.546;2023-06-22T03:53:27;96002.31;;;22.29;65.99
29239;BME280;16267;48.194;11.546;2023-06-22T03:55:53;96002.78;;;22.27;65.95
29239;BME280;16267;48.194;11.546;2023-06-22T03:58:20;96017.69;;;22.26;66.67
29239;BME280;16267;48.194;11.546;2023-06-22T04:00:50;96007.22;;;22.25;66.56
29239;BME280;16267;48.194;11.546;2023-06-22T04:03:17;96005.00;;;22.23;67.29
29239;BME280;16267;48.194;11.546;2023-06-22T04:05:46;96000.72;;;22.22;67.08
29239;BME280;16267;48.194;11.546;2023-06-22T04:08:13;96012.91;;;22.21;67.46
29239;BME280;16267;48.194;11.546;2023-06-22T04:10:39;96015.63;;;22.21;66.85
29239;BME280;16267;48.194;11.546;2023-06-22T04:13:05;96015.63;;;22.21;67.04
29239;BME280;16267;48.194;11.546;2023-06-22T04:15:31;96018.88;;;22.20;67.74
29239;BME280;16267;48.194;11.546;2023-06-22T04:17:57;96015.63;;;22.21;67.56
29239;BME280;16267;48.194;11.546;2023-06-22T04:20:23;96014.88;;;22.21;67.54
29239;BME280;16267;48.194;11.546;2023-06-22T04:22:55;96009.44;;;22.21;67.87
29239;BME280;16267;48.194;11.546;2023-06-22T04:25:22;96010.91;;;22.22;67.95
29239;BME280;16267;48.194;11.546;2023-06-22T04:27:50;96010.47;;;22.23;68.28
29239;BME280;16267;48.194;11.546;2023-06-22T04:30:16;95995.53;;;22.24;68.06
29239;BME280;16267;48.194;11.546;2023-06-22T04:32:43;95995.81;;;22.26;67.81
29239;BME280;16267;48.194;11.546;2023-06-22T04:35:10;95996.56;;;22.27;68.18
29239;BME280;16267;48.194;11.546;2023-06-22T04:37:41;95994.59;;;22.27;68.40
29239;BME280;16267;48.194;11.546;2023-06-22T04:40:07;96000.81;;;22.28;69.35
29239;BME280;16267;48.194;11.546;2023-06-22T04:42:35;95999.88;;;22.31;68.83
29239;BME280;16267;48.194;11.546;2023-06-22T04:45:02;96000.91;;;22.34;68.41
29239;BME280;16267;48.194;11.546;2023-06-22T04:47:28;95990.97;;;22.36;68.90
29239;BME280;16267;48.194;11.546;2023-06-22T04:49:54;95995.97;;;22.38;69.43
29239;BME280;16267;48.194;11.546;2023-06-22T04:52:20;95991.25;;;22.38;69.62
29239;BME280;16267;48.194;11.546;2023-06-22T04:54:45;95990.50;;;22.38;69.64
29239;BME280;16267;48.194;11.546;2023-06-22T04:57:13;95991.53;;;22.40;69.65
29239;BME280;16267;48.194;11.546;2023-06-22T04:59:40;95988.31;;;22.42;69.66
29239;BME280;16267;48.194;11.546;2023-06-22T05:02:07;95983.88;;;22.44;69.43
29239;BME280;16267;48.194;11.546;2023-06-22T05:04:34;95989.91;;;22.48;69.10
29239;BME280;16267;48.194;11.546;2023-06-22T05:07:04;95986.19;;;22.52;69.25
29239;BME280;16267;48.194;11.546;2023-06-22T05:09:31;95985.50;;;22.57;68.88
29239;BME280;16267;48.194;11.546;2023-06-22T05:12:00;95983.31;;;22.61;68.74
29239;BME280;16267;48.194;11.546;2023-06-22T05:14:29;95975.16;;;22.66;68.78
29239;BME280;16267;48.194;11.546;2023-06-22T05:16:55;95980.44;;;22.70;68.42
29239;BME280;16267;48.194;11.546;2023-06-22T05:19:25;95979.00;;;22.75;68.68
29239;BME280;16267;48.194;11.546;2023-06-22T05:21:56;95980.28;;;22.79;68.21
29239;BME280;16267;48.194;11.546;2023-06-22T05:24:22;95982.34;;;22.84;68.05
29239;BME280;16267;48.194;11.546;2023-06-22T05:26:48;95982.88;;;22.88;68.21
29239;BME280;16267;48.194;11.546;2023-06-22T05:29:14;95986.63;;;22.91;67.99
29239;BME280;16267;48.194;11.546;2023-06-22T05:31:39;95982.75;;;22.98;67.91
29239;BME280;16267;48.194;11.546;2023-06-22T05:34:06;95980.81;;;23.04;67.53
29239;BME280;16267;48.194;11.546;2023-06-22T05:36:32;95976.44;;;23.12;67.92
29239;BME280;16267;48.194;11.546;2023-06-22T05:38:57;95988.41;;;23.14;69.51
29239;BME280;16267;48.194;11.546;2023-06-22T05:41:24;95984.19;;;23.19;69.59
29239;BME280;16267;48.194;11.546;2023-06-22T05:43:49;95976.31;;;23.27;69.32
29239;BME280;16267;48.194;11.546;2023-06-22T05:46:18;95977.59;;;23.31;68.64
29239;BME280;16267;48.194;11.546;2023-06-22T05:48:44;95971.94;;;23.41;67.73
29239;BME280;16267;48.194;11.546;2023-06-22T05:51:10;95973.75;;;23.49;67.98
29239;BME280;16267;48.194;11.546;2023-06-22T05:53:36;95975.56;;;23.58;67.24
29239;BME280;16267;48.194;11.546;2023-06-22T05:56:02;95970.91;;;23.64;66.41
29239;BME280;16267;48.194;11.546;2023-06-22T05:58:28;95967.72;;;23.71;66.47
29239;BME280;16267;48.194;11.546;2023-06-22T06:00:54;95968.94;;;23.70;66.94
29239;BME280;16267;48.194;11.546;2023-06-22T06:03:20;95976.50;;;23.81;67.33
29239;BME280;16267;48.194;11.546;2023-06-22T06:05:46;95983.78;;;23.90;66.56
29239;BME280;16267;48.194;11.546;2023-06-22T06:08:14;95982.56;;;23.96;65.17
29239;BME280;16267;48.194;11.546;2023-06-22T06:10:40;95989.81;;;23.99;65.20
29239;BME280;16267;48.194;11.546;2023-06-22T06:13:05;95982.63;;;24.08;64.88
29239;BME280;16267;48.194;11.546;2023-06-22T06:15:33;95978.47;;;24.18;64.24
29239;BME280;16267;48.194;11.546;2023-06-22T06:17:59;95969.28;;;24.26;63.97
29239;BME280;16267;48.194;11.546;2023-06-22T06:20:26;95976.56;;;24.35;63.80
29239;BME280;16267;48.194;11.546;2023-06-22T06:22:55;95977.63;;;24.43;63.86
29239;BME280;16267;48.194;11.546;2023-06-22T06:25:22;95972.16;;;24.49;63.74
29239;BME280;16267;48.194;11.546;2023-06-22T06:27:49;95966.47;;;24.58;63.43
29239;BME280;16267;48.194;11.546;2023-06-22T06:30:18;95957.75;;;24.65;62.87
29239;BME280;16267;48.194;11.546;2023-06-22T06:32:45;95958.03;;;24.73;62.85
29239;BME280;16267;48.194;11.546;2023-06-22T06:35:13;95960.53;;;24.77;62.83
29239;BME280;16267;48.194;11.546;2023-06-22T06:37:44;95952.31;;;24.82;63.08
29239;BME280;16267;48.194;11.546;2023-06-22T06:40:15;95945.06;;;24.90;63.10
29239;BME280;16267;48.194;11.546;2023-06-22T06:42:47;95959.81;;;24.99;62.06
29239;BME280;16267;48.194;11.546;2023-06-22T06:45:19;95959.09;;;25.04;61.87
29239;BME280;16267;48.194;11.546;2023-06-22T06:47:48;95961.34;;;25.11;62.21
29239;BME280;16267;48.194;11.546;2023-06-22T06:50:18;95962.63;;;25.15;61.66
29239;BME280;16267;48.194;11.546;2023-06-22T06:52:44;95955.13;;;25.22;61.41
29239;BME280;16267;48.194;11.546;2023-06-22T06:55:10;95953.91;;;25.28;61.49
29239;BME280;16267;48.194;11.546;2023-06-22T06:57:42;95948.91;;;25.32;60.97
29239;BME280;16267;48.194;11.546;2023-06-22T07:00:10;95956.66;;;25.40;61.34
29239;BME280;16267;48.194;11.546;2023-06-22T07:02:43;95958.88;;;25.47;61.16
29239;BME280;16267;48.194;11.546;2023-06-22T07:05:11;95956.16;;;25.52;60.63
29239;BME280;16267;48.194;11.546;2023-06-22T07:07:38;95945.66;;;25.56;60.36
29239;BME280;16267;48.194;11.546;2023-06-22T07:10:14;95942.91;;;25.62;60.33
29239;BME280;16267;48.194;11.546;2023-06-22T07:12:40;95957.88;;;25.67;60.66
29239;BME280;16267;48.194;11.546;2023-06-22T07:15:08;95950.38;;;25.73;60.13
29239;BME280;16267;48.194;11.546;2023-06-22T07:20:43;95958.63;;;25.84;60.25
29239;BME280;16267;48.194;11.546;2023-06-22T07:23:09;95950.38;;;25.90;59.49
29239;BME280;16267;48.194;11.546;2023-06-22T07:25:35;95954.59;;;25.96;60.16
29239;BME280;16267;48.194;11.546;2023-06-22T07:28:06;95953.34;;;26.03;59.41
29239;BME280;16267;48.194;11.546;2023-06-22T07:30:34;95947.31;;;26.10;59.56
29239;BME280;16267;48.194;11.546;2023-06-22T07:33:00;95949.31;;;26.15;58.66
29239;BME280;16267;48.194;11.546;2023-06-22T07:35:30;95940.81;;;26.19;59.40
29239;BME280;16267;48.194;11.546;2023-06-22T07:37:56;95931.78;;;26.24;59.03
29239;BME280;16267;48.194;11.546;2023-06-22T07:40:22;95932.03;;;26.26;59.25
29239;BME280;16267;48.194;11.546;2023-06-22T07:42:47;95926.75;;;26.34;58.96
29239;BME280;16267;48.194;11.546;2023-06-22T07:45:13;95922.22;;;26.42;58.83
29239;BME280;16267;48.194;11.546;2023-06-22T07:47:40;95909.91;;;26.48;58.26
29239;BME280;16267;48.194;11.546;2023-06-22T07:50:06;95917.66;;;26.56;58.08
29239;BME280;16267;48.194;11.546;2023-06-22T07:52:32;95915.13;;;26.63;57.75
29239;BME280;16267;48.194;11.546;2023-06-22T07:54:58;95911.84;;;26.65;57.77
29239;BME280;16267;48.194;11.546;2023-06-22T07:57:24;95904.56;;;26.73;57.43
29239;BME280;16267;48.194;11.546;2023-06-22T07:59:58;95917.25;;;26.82;57.46
29239;BME280;16267;48.194;11.546;2023-06-22T08:02:24;95920.22;;;26.89;57.30
29239;BME280;16267;48.194;11.546;2023-06-22T08:04:50;95913.19;;;26.94;56.73
29239;BME280;16267;48.194;11.546;2023-06-22T08:07:16;95914.13;;;27.02;56.89
29239;BME280;16267;48.194;11.546;2023-06-22T08:09:48;95920.84;;;27.07;57.04
29239;BME280;16267;48.194;11.546;2023-06-22T08:12:14;95908.53;;;27.13;57.14
29239;BME280;16267;48.194;11.546;2023-06-22T08:14:44;95913.53;;;27.15;56.28
29239;BME280;16267;48.194;11.546;2023-06-22T08:17:11;95911.28;;;27.19;56.53
29239;BME280;16267;48.194;11.546;2023-06-22T08:19:37;95913.25;;;27.24;56.03
29239;BME280;16267;48.194;11.546;2023-06-22T08:22:03;95917.50;;;27.25;55.61
29239;BME280;16267;48.194;11.546;2023-06-22T08:24:29;95913.72;;;27.28;56.41
29239;BME280;16267;48.194;11.546;2023-06-22T08:26:56;95908.41;;;27.36;55.99
29239;BME280;16267;48.194;11.546;2023-06-22T08:29:22;95908.59;;;27.44;56.36
29239;BME280;16267;48.194;11.546;2023-06-22T08:31:48;95902.50;;;27.51;55.58
29239;BME280;16267;48.194;11.546;2023-06-22T08:34:13;95900.38;;;27.63;56.83
29239;BME280;16267;48.194;11.546;2023-06-22T08:36:39;95904.28;;;27.73;55.17
29239;BME280;16267;48.194;11.546;2023-06-22T08:39:10;95912.25;;;27.82;54.03
29239;BME280;16267;48.194;11.546;2023-06-22T08:41:36;95907.44;;;27.88;54.18
29239;BME280;16267;48.194;11.546;2023-06-22T08:44:03;95904.06;;;27.95;53.42
29239;BME280;16267;48.194;11.546;2023-06-22T08:46:29;95911.09;;;27.96;53.10
29239;BME280;16267;48.194;11.546;2023-06-22T08:48:59;95902.00;;;28.01;52.89
29239;BME280;16267;48.194;11.546;2023-06-22T08:51:26;95901.44;;;28.09;52.90
29239;BME280;16267;48.194;11.546;2023-06-22T08:53:52;95902.63;;;28.13;52.90
29239;BME280;16267;48.194;11.546;2023-06-22T08:56:18;95900.56;;;28.19;52.44
29239;BME280;16267;48.194;11.546;2023-06-22T08:58:44;95894.97;;;28.25;52.08
29239;BME280;16267;48.194;11.546;2023-06-22T09:01:10;95898.41;;;28.31;51.94
29239;BME280;16267;48.194;11.546;2023-06-22T09:03:35;95894.28;;;28.38;51.57
29239;BME280;16267;48.194;11.546;2023-06-22T09:06:03;95883.44;;;28.45;51.29
29239;BME280;16267;48.194;11.546;2023-06-22T09:08:29;95887.09;;;28.54;51.69
29239;BME280;16267;48.194;11.546;2023-06-22T09:10:55;95892.53;;;28.59;51.35
29239;BME280;16267;48.194;11.546;2023-06-22T09:13:21;95884.09;;;28.71;51.71
29239;BME280;16267;48.194;11.546;2023-06-22T09:15:47;95890.00;;;28.80;50.44
29239;BME280;16267;48.194;11.546;2023-06-22T09:18:14;95890.66;;;28.86;50.09
29239;BME280;16267;48.194;11.546;2023-06-22T09:20:39;95888.53;;;28.92;49.48
29239;BME280;16267;48.194;11.546;2023-06-22T09:23:05;95891.75;;;28.97;50.17
29239;BME280;16267;48.194;11.546;2023-06-22T09:25:31;95886.38;;;29.04;49.88
29239;BME280;16267;48.194;11.546;2023-06-22T09:27:57;95887.25;;;29.12;50.03
29239;BME280;16267;48.194;11.546;2023-06-22T09:30:22;95892.41;;;29.22;49.53
29239;BME280;16267;48.194;11.546;2023-06-22T09:32:48;95882.22;;;29.30;48.75
29239;BME280;16267;48.194;11.546;2023-06-22T09:35:14;95879.38;;;29.35;48.23
29239;BME280;16267;48.194;11.546;2023-06-22T09:37:40;95879.50;;;29.43;47.87
29239;BME280;16267;48.194;11.546;2023-06-22T09:40:07;95876.41;;;29.47;47.66
29239;BME280;16267;48.194;11.546;2023-06-22T09:42:38;95866.72;;;29.53;47.55
29239;BME280;16267;48.194;11.546;2023-06-22T09:45:05;95878.41;;;29.60;46.89
29239;BME280;16267;48.194;11.546;2023-06-22T09:47:31;95875.66;;;29.60;47.05
29239;BME280;16267;48.194;11.546;2023-06-22T09:49:57;95868.06;;;29.66;47.07
29239;BME280;16267;48.194;11.546;2023-06-22T09:52:25;95874.75;;;29.70;46.54
29239;BME280;16267;48.194;11.546;2023-06-22T09:54:51;95868.03;;;29.79;46.97
29239;BME280;16267;48.194;11.546;2023-06-22T09:57:16;95861.13;;;29.86;46.83
29239;BME280;16267;48.194;11.546;2023-06-22T09:59:42;95864.00;;;29.93;45.95
29239;BME280;16267;48.194;11.546;2023-06-22T10:02:08;95852.50;;;30.02;45.95
29239;BME280;16267;48.194;11.546;2023-06-22T10:04:35;95849.63;;;30.08;46.24
29239;BME280;16267;48.194;11.546;2023-06-22T10:07:02;95848.22;;;30.15;45.86
29239;BME280;16267;48.194;11.546;2023-06-22T10:09:28;95859.09;;;30.26;45.72
29239;BME280;16267;48.194;11.546;2023-06-22T10:11:54;95848.84;;;30.34;45.48
29239;BME280;16267;48.194;11.546;2023-06-22T10:14:20;95838.81;;;30.44;45.38
29239;BME280;16267;48.194;11.546;2023-06-22T10:16:45;95843.16;;;30.53;45.09
29239;BME280;16267;48.194;11.546;2023-06-22T10:19:11;95839.31;;;30.56;44.94
29239;BME280;16267;48.194;11.546;2023-06-22T10:21:37;95847.19;;;30.65;45.16
29239;BME280;16267;48.194;11.546;2023-06-22T10:24:03;95838.94;;;30.73;44.58
29239;BME280;16267;48.194;11.546;2023-06-22T10:26:33;95840.31;;;30.80;43.98
29239;BME280;16267;48.194;11.546;2023-06-22T10:28:59;95843.50;;;30.84;44.37
29239;BME280;16267;48.194;11.546;2023-06-22T10:31:25;95838.38;;;30.88;43.82
29239;BME280;16267;48.194;11.546;2023-06-22T10:33:54;95839.72;;;30.95;44.23
29239;BME280;16267;48.194;11.546;2023-06-22T10:36:22;95835.72;;;31.03;43.88
29239;BME280;16267;48.194;11.546;2023-06-22T10:38:48;95836.53;;;31.11;43.81
29239;BME280;16267;48.194;11.546;2023-06-22T10:41:14;95829.75;;;31.20;44.36
29239;BME280;16267;48.194;11.546;2023-06-22T10:43:40;95829.47;;;31.31;44.02
29239;BME280;16267;48.194;11.546;2023-06-22T10:46:07;95825.09;;;31.36;43.25
29239;BME280;16267;48.194;11.546;2023-06-22T10:48:33;95822.78;;;31.48;43.24
29239;BME280;16267;48.194;11.546;2023-06-22T10:50:59;95812.88;;;31.60;43.19
29239;BME280;16267;48.194;11.546;2023-06-22T10:53:25;95814.63;;;31.71;42.62
29239;BME280;16267;48.194;11.546;2023-06-22T10:55:50;95809.28;;;31.81;42.83
29239;BME280;16267;48.194;11.546;2023-06-22T10:58:18;95806.75;;;31.90;42.17
29239;BME280;16267;48.194;11.546;2023-06-22T11:00:45;95793.34;;;32.02;42.26
29239;BME280;16267;48.194;11.546;2023-06-22T11:03:11;95801.50;;;32.08;42.01
29239;BME280;16267;48.194;11.546;2023-06-22T11:05:37;95803.53;;;32.07;41.54
29239;BME280;16267;48.194;11.546;2023-06-22T11:08:03;95802.78;;;32.07;41.45
29239;BME280;16267;48.194;11.546;2023-06-22T11:10:29;95808.34;;;32.07;41.28
29239;BME280;16267;48.194;11.546;2023-06-22T11:12:54;95813.91;;;32.07;41.31
29239;BME280;16267;48.194;11.546;2023-06-22T11:15:21;95807.97;;;32.10;40.88
29239;BME280;16267;48.194;11.546;2023-06-22T11:17:47;95812.44;;;32.13;41.56
29239;BME280;16267;48.194;11.546;2023-06-22T11:20:13;95806.19;;;32.20;41.65
29239;BME280;16267;48.194;11.546;2023-06-22T11:22:42;95796.38;;;32.27;41.27
29239;BME280;16267;48.194;11.546;2023-06-22T11:25:08;95801.97;;;32.35;41.11
29239;BME280;16267;48.194;11.546;2023-06-22T11:27:34;95800.84;;;32.38;40.43
29239;BME280;16267;48.194;11.546;2023-06-22T11:30:00;95798.63;;;32.44;40.26
29239;BME280;16267;48.194;11.546;2023-06-22T11:32:26;95798.31;;;32.55;40.36
29239;BME280;16267;48.194;11.546;2023-06-22T11:34:52;95801.88;;;32.71;40.56
29239;BME280;16267;48.194;11.546;2023-06-22T11:37:18;95798.16;;;32.84;40.20
29239;BME280;16267;48.194;11.546;2023-06-22T11:39:43;95784.84;;;32.98;39.78
29239;BME280;16267;48.194;11.546;2023-06-22T11:42:10;95777.06;;;33.12;39.58
29239;BME280;16267;48.194;11.546;2023-06-22T11:44:35;95773.19;;;33.22;39.45
29239;BME280;16267;48.194;11.546;2023-06-22T11:47:01;95772.63;;;33.31;39.50
29239;BME280;16267;48.194;11.546;2023-06-22T11:49:32;95771.66;;;33.37;38.44
29239;BME280;16267;48.194;11.546;2023-06-22T11:51:58;95764.03;;;33.45;38.38
29239;BME280;16267;48.194;11.546;2023-06-22T11:54:24;95767.59;;;33.53;38.07
29239;BME280;16267;48.194;11.546;2023-06-22T11:56:50;95757.75;;;33.60;37.71
29239;BME280;16267;48.194;11.546;2023-06-22T11:59:15;95759.75;;;33.67;38.26
29239;BME280;16267;48.194;11.546;2023-06-22T12:01:41;95761.22;;;33.75;38.60
29239;BME280;16267;48.194;11.546;2023-06-22T12:04:07;95758.59;;;33.78;38.23
29239;BME280;16267;48.194;11.546;2023-06-22T12:06:38;95754.69;;;33.88;38.55
29239;BME280;16267;48.194;11.546;2023-06-22T12:09:07;95762.25;;;33.95;38.50
29239;BME280;16267;48.194;11.546;2023-06-22T12:11:33;95752.59;;;33.96;38.11
29239;BME280;16267;48.194;11.546;2023-06-22T12:13:58;95750.72;;;33.99;37.99
29239;BME280;16267;48.194;11.546;2023-06-22T12:16:30;95747.41;;;34.01;37.53
29239;BME280;16267;48.194;11.546;2023-06-22T12:18:56;95743.47;;;34.04;37.51
29239;BME280;16267;48.194;11.546;2023-06-22T12:21:22;95737.53;;;34.07;37.86
29239;BME280;16267;48.194;11.546;2023-06-22T12:23:48;95728.63;;;34.09;37.65
29239;BME280;16267;48.194;11.546;2023-06-22T12:26:14;95729.19;;;34.07;37.93
29239;BME280;16267;48.194;11.546;2023-06-22T12:28:40;95733.63;;;34.03;37.79
29239;BME280;16267;48.194;11.546;2023-06-22T12:31:05;95733.50;;;33.93;38.16
29239;BME280;16267;48.194;11.546;2023-06-22T12:33:31;95724.06;;;33.88;38.48
29239;BME280;16267;48.194;11.546;2023-06-22T12:35:57;95718.84;;;33.92;38.05
29239;BME280;16267;48.194;11.546;2023-06-22T12:38:23;95719.94;;;33.97;38.07
29239;BME280;16267;48.194;11.546;2023-06-22T12:40:51;95724.38;;;34.00;37.77
29239;BME280;16267;48.194;11.546;2023-06-22T12:43:18;95725.84;;;34.01;37.97
29239;BME280;16267;48.194;11.546;2023-06-22T12:45:43;95716.19;;;34.02;38.12
29239;BME280;16267;48.194;11.546;2023-06-22T12:48:09;95716.19;;;34.02;38.05
29239;BME280;16267;48.194;11.546;2023-06-22T12:50:35;95709.53;;;33.97;37.63
29239;BME280;16267;48.194;11.546;2023-06-22T12:53:00;95707.50;;;33.98;38.04
29239;BME280;16267;48.194;11.546;2023-06-22T12:55:28;95706.75;;;33.97;38.71
29239;BME280;16267;48.194;11.546;2023-06-22T12:57:54;95703.41;;;33.99;38.62